Time;durP1;ratioP1;P1;durP2;ratioP2;P2;SDS_P1;SDS_P2;PMS_P1;PMS_P2;Temp;Humidity;BMP_temperature;BMP_pressure;BME280_temperature;BME280_humidity;BME280_pressure;Samples;Min_cycle;Max_cycle;Signal;HPM_P1;HPM_P2
2022/01/05 00:00:13;;;;;;;7.63;1.15;;;2.60;99.90;;;;;;5054896;28;20027;-82
2022/01/05 00:02:39;;;;;;;5.78;1.23;;;2.60;99.90;;;;;;5053644;28;20021;-81
2022/01/05 00:05:06;;;;;;;9.85;1.33;;;2.70;99.90;;;;;;5055758;28;20025;-81
2022/01/05 00:07:32;;;;;;;4.90;1.23;;;2.60;96.40;;;;;;5054558;28;20051;-81
2022/01/05 00:09:58;;;;;;;10.57;1.73;;;2.60;99.90;;;;;;5055033;28;20033;-81
2022/01/05 00:12:25;;;;;;;9.38;1.27;;;2.70;99.90;;;;;;5053426;28;20395;-81
2022/01/05 00:14:50;;;;;;;8.45;1.33;;;2.80;99.90;;;;;;5053324;28;20374;-82
2022/01/05 00:17:16;;;;;;;6.40;1.10;;;2.80;98.70;;;;;;5054780;28;20495;-82
2022/01/05 00:19:43;;;;;;;7.20;1.23;;;2.80;97.80;;;;;;5053227;28;20021;-81
2022/01/05 00:22:10;;;;;;;4.07;0.88;;;2.60;99.90;;;;;;5053310;28;20021;-81
2022/01/05 00:24:36;;;;;;;5.05;1.17;;;2.70;99.90;;;;;;5054453;28;20060;-81
2022/01/05 00:27:02;;;;;;;8.23;0.98;;;2.60;99.80;;;;;;5053156;28;20032;-81
2022/01/05 00:29:28;;;;;;;6.53;1.10;;;2.60;88.40;;;;;;5054428;28;20430;-81
2022/01/05 00:31:53;;;;;;;7.00;1.00;;;2.50;87.70;;;;;;5052543;28;20516;-81
2022/01/05 00:34:19;;;;;;;5.13;1.00;;;2.50;99.30;;;;;;5054546;28;20021;-81
2022/01/05 00:36:44;;;;;;;14.70;4.38;;;2.50;99.90;;;;;;5052912;28;20102;-81
2022/01/05 00:39:10;;;;;;;12.18;2.22;;;2.50;99.90;;;;;;5054190;28;20025;-81
2022/01/05 00:41:35;;;;;;;11.13;1.40;;;2.50;99.90;;;;;;5053146;28;20024;-81
2022/01/05 00:44:01;;;;;;;7.47;1.10;;;2.50;99.90;;;;;;5054327;28;20021;-81
2022/01/05 00:46:26;;;;;;;8.48;0.88;;;2.60;99.90;;;;;;5052713;28;20044;-82
2022/01/05 00:48:52;;;;;;;17.42;1.80;;;2.60;85.40;;;;;;5053976;28;20036;-81
2022/01/05 00:51:17;;;;;;;4.90;0.90;;;2.50;91.30;;;;;;5054085;28;20541;-81
2022/01/05 00:53:43;;;;;;;7.13;1.00;;;2.50;99.90;;;;;;5053826;28;20136;-81
2022/01/05 00:56:09;;;;;;;4.03;0.75;;;2.70;99.90;;;;;;5053854;28;20063;-81
2022/01/05 00:58:34;;;;;;;8.80;0.98;;;2.80;99.90;;;;;;5052517;28;20492;-81
2022/01/05 01:01:00;;;;;;;3.92;0.93;;;2.60;99.90;;;;;;5053792;28;20342;-81
2022/01/05 01:03:28;;;;;;;7.82;1.42;;;2.80;99.90;;;;;;5054204;28;20105;-81
2022/01/05 01:05:59;;;;;;;7.32;1.25;;;2.70;99.90;;;;;;5053706;28;20507;-81
2022/01/05 01:08:25;;;;;;;9.38;1.25;;;2.70;99.90;;;;;;5053895;28;20041;-81
2022/01/05 01:10:51;;;;;;;7.50;1.00;;;2.90;99.90;;;;;;5053640;28;20025;-82
2022/01/05 01:13:17;;;;;;;8.65;1.88;;;3.00;99.90;;;;;;5053554;28;20022;-82
2022/01/05 01:15:47;;;;;;;10.60;1.50;;;3.00;99.90;;;;;;5053545;28;20382;-82
2022/01/05 01:18:13;;;;;;;11.10;1.40;;;2.90;99.90;;;;;;5053486;28;20040;-82
2022/01/05 01:20:39;;;;;;;10.48;1.35;;;3.00;99.90;;;;;;5053543;28;20381;-82
2022/01/05 01:23:05;;;;;;;11.55;1.73;;;2.90;98.90;;;;;;5053449;28;20420;-82
2022/01/05 01:25:30;;;;;;;9.18;1.13;;;2.90;93.00;;;;;;5052226;28;20624;-81
2022/01/05 01:27:56;;;;;;;9.18;1.40;;;2.80;99.90;;;;;;5053410;28;20025;-81
2022/01/05 01:30:22;;;;;;;11.52;1.48;;;2.80;99.90;;;;;;5053277;28;20033;-82
2022/01/05 01:32:47;;;;;;;10.85;1.38;;;2.60;99.90;;;;;;5053294;28;20492;-82
2022/01/05 01:35:13;;;;;;;13.63;1.17;;;2.60;99.90;;;;;;5053292;28;20021;-82
2022/01/05 01:37:39;;;;;;;8.10;1.17;;;2.60;99.90;;;;;;5053305;28;20036;-82
2022/01/05 01:40:06;;;;;;;13.32;2.08;;;2.70;99.90;;;;;;5053082;28;20384;-82
2022/01/05 01:42:32;;;;;;;4.97;1.15;;;3.00;99.90;;;;;;5053062;28;20017;-82
2022/01/05 01:44:58;;;;;;;10.43;1.15;;;2.90;99.90;;;;;;5051104;28;20025;-82
2022/01/05 01:47:23;;;;;;;5.55;1.15;;;3.10;99.90;;;;;;5053206;28;20079;-82
2022/01/05 01:49:49;;;;;;;8.98;1.25;;;3.10;99.90;;;;;;5053021;28;20036;-82
2022/01/05 01:52:15;;;;;;;11.80;1.58;;;2.90;99.90;;;;;;5053074;28;20082;-79
2022/01/05 01:54:40;;;;;;;10.15;1.35;;;2.90;99.90;;;;;;5052996;28;20112;-79
2022/01/05 01:57:07;;;;;;;5.75;0.88;;;2.80;99.90;;;;;;5052998;28;20392;-79
2022/01/05 01:59:33;;;;;;;9.10;1.15;;;2.80;99.90;;;;;;5053008;28;20146;-79
2022/01/05 02:01:59;;;;;;;14.88;1.80;;;2.80;99.90;;;;;;5052934;28;20079;-79
2022/01/05 02:04:25;;;;;;;8.07;1.13;;;2.70;99.90;;;;;;5052933;28;20025;-79
2022/01/05 02:06:51;;;;;;;11.77;1.55;;;2.70;99.90;;;;;;5053449;28;20380;-79
2022/01/05 02:09:18;;;;;;;6.10;1.58;;;2.80;99.90;;;;;;5053350;28;20122;-79
2022/01/05 02:11:44;;;;;;;10.57;1.80;;;2.70;99.90;;;;;;5052909;28;20021;-80
2022/01/05 02:14:10;;;;;;;7.32;0.88;;;2.70;99.90;;;;;;5052970;28;20029;-79
2022/01/05 02:16:40;;;;;;;8.63;1.63;;;2.80;99.90;;;;;;5051498;28;20057;-79
2022/01/05 02:19:06;;;;;;;12.00;1.90;;;2.80;99.90;;;;;;5053421;28;20025;-79
2022/01/05 02:21:34;;;;;;;18.10;1.50;;;2.90;99.90;;;;;;5051516;28;20407;-79
2022/01/05 02:24:02;;;;;;;10.82;1.25;;;2.80;99.90;;;;;;5052782;28;20021;-79
2022/01/05 02:29:49;;;;;;;11.25;1.40;;;3.00;99.90;;;;;;5052709;28;20024;-79
2022/01/05 02:32:48;;;;;;;8.90;1.20;;;3.10;99.90;;;;;;5052660;28;20029;-79
2022/01/05 02:35:14;;;;;;;6.70;1.33;;;3.30;99.90;;;;;;5051494;28;20021;-79
2022/01/05 02:37:45;;;;;;;5.85;1.10;;;3.60;99.90;;;;;;5052670;28;20095;-79
2022/01/05 02:40:12;;;;;;;5.03;0.80;;;3.60;99.90;;;;;;5053342;28;20028;-79
2022/01/05 02:42:38;;;;;;;9.30;0.90;;;3.50;99.90;;;;;;5052624;28;20024;-79
2022/01/05 02:45:04;;;;;;;8.25;1.10;;;3.50;99.90;;;;;;5052685;28;20024;-79
2022/01/05 02:47:30;;;;;;;5.63;1.00;;;3.50;99.90;;;;;;5052571;28;20037;-79
2022/01/05 02:50:00;;;;;;;8.52;1.08;;;3.50;99.90;;;;;;5052487;28;20044;-79
2022/01/05 02:52:26;;;;;;;11.05;1.40;;;3.50;99.90;;;;;;5051337;28;20029;-79
2022/01/05 02:54:51;;;;;;;8.55;0.98;;;3.50;99.90;;;;;;5051442;28;20082;-79
2022/01/05 02:57:17;;;;;;;13.68;1.20;;;3.40;99.90;;;;;;5054840;28;20484;-79
2022/01/05 02:59:42;;;;;;;12.43;1.55;;;3.40;99.90;;;;;;5056171;28;20039;-79
2022/01/05 03:02:08;;;;;;;9.20;1.88;;;3.50;99.90;;;;;;5056315;28;20031;-80
2022/01/05 03:04:33;;;;;;;4.97;0.70;;;3.70;99.90;;;;;;5056037;28;20054;-80
2022/01/05 03:06:59;;;;;;;4.80;0.80;;;4.00;99.90;;;;;;5056004;28;20025;-80
2022/01/05 03:09:25;;;;;;;4.53;0.80;;;3.80;99.90;;;;;;5055829;28;20124;-79
2022/01/05 03:11:51;;;;;;;4.97;0.63;;;3.60;99.90;;;;;;5055883;28;20477;-80
2022/01/05 03:14:16;;;;;;;8.10;0.55;;;3.40;99.90;;;;;;5055804;28;20057;-80
2022/01/05 03:20:22;;;;;;;5.70;0.50;;;3.00;1.00;;;;;;5036218;28;20535;-79
2022/01/05 03:23:03;;;;;;;3.97;0.82;;;2.90;1.00;;;;;;5036046;28;20018;-79
2022/01/05 03:25:29;;;;;;;2.67;0.68;;;2.80;1.00;;;;;;5042751;28;20040;-80
2022/01/05 03:27:55;;;;;;;4.65;0.65;;;2.70;3.10;;;;;;5055533;28;20036;-79
2022/01/05 03:30:23;;;;;;;5.30;0.60;;;2.70;31.00;;;;;;5055554;28;20024;-79
2022/01/05 03:33:24;;;;;;;4.85;0.45;;;2.70;47.50;;;;;;5055429;28;20061;-80
2022/01/05 03:35:44;;;;;;;3.53;0.65;;;2.70;18.90;;;;;;5035572;28;20048;-79
2022/01/05 03:38:11;;;;;;;5.10;0.68;;;2.90;22.10;;;;;;5050824;28;20389;-79
2022/01/05 03:40:37;;;;;;;10.13;1.20;;;2.80;1.00;;;;;;5035436;28;20041;-79
2022/01/05 03:43:04;;;;;;;9.73;1.38;;;2.80;4.30;;;;;;5035417;28;20024;-79
2022/01/05 03:45:30;;;;;;;9.82;1.20;;;2.80;36.70;;;;;;5035421;28;20030;-79
2022/01/05 03:47:56;;;;;;;11.98;1.33;;;2.90;96.40;;;;;;5035290;28;20087;-80
2022/01/05 03:50:21;;;;;;;9.07;1.17;;;3.10;99.90;;;;;;5035561;28;20529;-79
2022/01/05 03:52:47;;;;;;;11.05;1.77;;;2.90;99.90;;;;;;5033962;28;20022;-79
2022/01/05 03:55:13;;;;;;;12.90;1.52;;;2.90;99.90;;;;;;5035422;28;20572;-80
2022/01/05 03:57:38;;;;;;;13.23;2.58;;;2.90;99.90;;;;;;5035136;28;20030;-79
2022/01/05 04:00:05;;;;;;;14.27;2.10;;;2.80;99.90;;;;;;5035144;28;20025;-79
2022/01/05 04:02:31;;;;;;;8.70;1.50;;;3.10;99.90;;;;;;5035125;28;20013;-79
2022/01/05 04:04:56;;;;;;;9.20;1.65;;;3.10;99.90;;;;;;5035254;28;20092;-80
2022/01/05 04:07:22;;;;;;;18.38;2.10;;;3.00;99.90;;;;;;5033783;28;20029;-79
2022/01/05 04:09:48;;;;;;;9.75;1.42;;;2.90;99.90;;;;;;5035022;28;20135;-79
2022/01/05 04:12:13;;;;;;;8.57;1.30;;;3.00;99.90;;;;;;5034759;28;20013;-80
2022/01/05 04:14:39;;;;;;;13.20;1.92;;;3.00;99.90;;;;;;5034947;28;20025;-80
2022/01/05 04:17:05;;;;;;;12.13;1.27;;;3.00;99.90;;;;;;5034738;28;20041;-80
2022/01/05 04:19:31;;;;;;;10.45;1.98;;;3.10;99.90;;;;;;5034842;28;20022;-80
2022/01/05 04:21:57;;;;;;;6.70;1.20;;;3.00;99.90;;;;;;5037663;28;20013;-80
2022/01/05 04:24:23;;;;;;;5.30;0.98;;;3.00;99.90;;;;;;5054528;28;20033;-79
2022/01/05 04:26:48;;;;;;;8.68;1.30;;;3.00;99.90;;;;;;5054422;28;20087;-79
2022/01/05 04:29:14;;;;;;;7.63;1.20;;;3.10;99.90;;;;;;5054288;28;20061;-80
2022/01/05 04:31:39;;;;;;;4.55;0.82;;;3.00;99.90;;;;;;5054293;28;20524;-80
2022/01/05 04:34:05;;;;;;;7.88;1.35;;;3.10;99.90;;;;;;5054235;28;20029;-80
2022/01/05 04:36:31;;;;;;;13.27;2.00;;;3.30;99.90;;;;;;5054934;28;20461;-79
2022/01/05 04:38:56;;;;;;;5.25;1.33;;;3.60;99.90;;;;;;5052911;28;20067;-80
2022/01/05 04:41:22;;;;;;;10.90;2.30;;;3.80;99.90;;;;;;5052989;28;20499;-80
2022/01/05 04:43:47;;;;;;;10.85;1.67;;;3.90;99.90;;;;;;5054096;28;20017;-80
2022/01/05 04:46:13;;;;;;;6.63;1.33;;;4.00;99.90;;;;;;5054172;28;20383;-80
2022/01/05 04:48:39;;;;;;;8.30;1.40;;;4.00;99.90;;;;;;5052856;28;20025;-80
2022/01/05 04:51:04;;;;;;;11.30;1.75;;;3.90;99.90;;;;;;5053954;28;20018;-80
2022/01/05 04:53:30;;;;;;;11.23;1.30;;;3.90;99.90;;;;;;5052704;28;20480;-80
2022/01/05 04:55:56;;;;;;;11.65;1.58;;;4.00;99.90;;;;;;5054202;28;20656;-80
2022/01/05 04:58:21;;;;;;;7.47;1.52;;;4.00;99.90;;;;;;5053863;28;20029;-80
2022/01/05 05:00:47;;;;;;;9.90;1.13;;;4.00;99.90;;;;;;5053808;28;20021;-80
2022/01/05 05:03:13;;;;;;;12.05;1.73;;;4.10;99.90;;;;;;5052601;28;20044;-80
2022/01/05 05:05:39;;;;;;;15.52;2.60;;;4.20;99.90;;;;;;5053720;28;20437;-81
2022/01/05 05:08:05;;;;;;;6.13;1.45;;;4.30;99.90;;;;;;5053578;28;20102;-81
2022/01/05 05:10:30;;;;;;;12.23;1.50;;;4.40;99.90;;;;;;5053656;28;20419;-81
2022/01/05 05:12:56;;;;;;;17.17;1.75;;;4.40;99.90;;;;;;5053654;28;20024;-81
2022/01/05 05:15:22;;;;;;;10.68;1.40;;;4.40;99.90;;;;;;5053655;28;20021;-81
2022/01/05 05:17:47;;;;;;;9.70;1.50;;;4.40;99.90;;;;;;5053253;28;20032;-81
2022/01/05 05:20:13;;;;;;;17.58;1.70;;;4.40;99.90;;;;;;5053428;28;20077;-81
2022/01/05 05:22:38;;;;;;;12.60;1.95;;;4.40;99.90;;;;;;5053743;28;20044;-81
2022/01/05 05:25:05;;;;;;;11.60;1.80;;;4.50;99.90;;;;;;5053479;28;20027;-81
2022/01/05 05:27:30;;;;;;;10.50;1.58;;;4.40;99.90;;;;;;5051904;28;20071;-81
2022/01/05 05:29:56;;;;;;;10.00;1.40;;;4.50;99.90;;;;;;5051216;28;20075;-81
2022/01/05 05:32:22;;;;;;;12.38;1.65;;;4.50;99.90;;;;;;5032138;28;20029;-81
2022/01/05 05:34:47;;;;;;;10.10;1.60;;;4.50;99.90;;;;;;5033394;28;20776;-81
2022/01/05 05:37:15;;;;;;;11.25;1.85;;;4.60;99.90;;;;;;5033259;28;20040;-81
2022/01/05 05:39:41;;;;;;;12.77;0.95;;;4.60;99.90;;;;;;5034024;28;20022;-81
2022/01/05 05:42:07;;;;;;;13.00;2.05;;;4.70;99.90;;;;;;5033349;28;20071;-81
2022/01/05 05:44:33;;;;;;;5.25;1.85;;;4.70;99.90;;;;;;5041704;28;20021;-81
2022/01/05 05:46:59;;;;;;;10.13;1.25;;;4.70;99.90;;;;;;5053247;28;20036;-78
2022/01/05 05:49:24;;;;;;;14.38;1.63;;;4.70;99.90;;;;;;5051744;28;20097;-81
2022/01/05 05:51:50;;;;;;;16.30;1.88;;;4.70;99.90;;;;;;5053198;28;20032;-81
2022/01/05 05:54:15;;;;;;;10.52;2.17;;;4.80;99.90;;;;;;5053102;28;20025;-81
2022/01/05 06:00:07;;;;;;;5.30;0.88;;;4.50;99.90;;;;;;5044704;28;20039;-81
2022/01/05 06:02:33;;;;;;;2.53;0.35;;;4.50;99.90;;;;;;5053116;28;20029;-81
2022/01/05 06:04:58;;;;;;;1.15;0.10;;;4.40;99.90;;;;;;5053148;28;20388;-81
2022/01/05 06:07:24;;;;;;;4.18;0.50;;;4.30;99.90;;;;;;5040941;28;20030;-81
2022/01/05 06:09:49;;;;;;;8.90;1.10;;;4.20;99.90;;;;;;5033153;28;20041;-81
2022/01/05 06:12:15;;;;;;;11.25;1.17;;;4.20;99.90;;;;;;5031860;28;20033;-81
2022/01/05 06:14:41;;;;;;;5.38;0.90;;;4.20;99.90;;;;;;5031872;28;20045;-81
2022/01/05 06:17:06;;;;;;;11.15;1.27;;;4.20;99.90;;;;;;5032982;28;20754;-81
2022/01/05 06:19:32;;;;;;;6.93;1.15;;;4.20;99.90;;;;;;5033314;28;20028;-81
2022/01/05 06:21:58;;;;;;;9.93;1.20;;;4.30;99.90;;;;;;5031786;28;20436;-81
2022/01/05 06:24:24;;;;;;;7.75;0.80;;;4.40;99.90;;;;;;5031715;28;20022;-81
2022/01/05 06:26:52;;;;;;;10.43;1.67;;;4.50;99.90;;;;;;5032942;28;20029;-81
2022/01/05 06:29:18;;;;;;;10.38;1.65;;;4.60;99.90;;;;;;5033420;28;20017;-81
2022/01/05 06:31:44;;;;;;;8.10;1.40;;;4.80;99.90;;;;;;5034755;28;20026;-81
2022/01/05 06:34:09;;;;;;;6.38;1.30;;;4.90;99.90;;;;;;5035627;28;20025;-79
2022/01/05 06:36:35;;;;;;;11.85;1.70;;;5.00;99.90;;;;;;5036774;28;20053;-79
2022/01/05 06:39:01;;;;;;;4.78;0.73;;;5.00;99.90;;;;;;5053404;28;20090;-79
2022/01/05 06:41:27;;;;;;;9.85;1.35;;;4.90;99.90;;;;;;5057317;28;20110;-79
2022/01/05 06:43:52;;;;;;;7.68;1.13;;;5.00;99.90;;;;;;5056504;28;20080;-79
2022/01/05 06:46:18;;;;;;;8.80;1.60;;;5.00;99.90;;;;;;5049177;28;20037;-79
2022/01/05 06:48:43;;;;;;;10.98;1.52;;;5.20;99.90;;;;;;5049003;28;20025;-79
2022/01/05 06:51:09;;;;;;;14.00;1.45;;;5.20;99.90;;;;;;5055195;28;20029;-79
2022/01/05 06:53:35;;;;;;;9.70;1.10;;;5.20;99.90;;;;;;5056325;28;20202;-79
2022/01/05 06:56:00;;;;;;;4.05;0.93;;;5.20;99.90;;;;;;5036788;28;20469;-79
2022/01/05 06:58:26;;;;;;;7.97;1.17;;;5.10;99.90;;;;;;5034478;28;20033;-79
2022/01/05 07:00:51;;;;;;;6.30;1.17;;;5.10;99.90;;;;;;5036901;28;20048;-79
2022/01/05 07:03:17;;;;;;;12.48;1.85;;;5.10;99.90;;;;;;5034031;28;20028;-79
2022/01/05 07:05:42;;;;;;;11.15;1.40;;;5.20;99.90;;;;;;5038773;28;20384;-79
2022/01/05 07:08:08;;;;;;;8.55;0.90;;;5.30;99.90;;;;;;5040583;28;20050;-79
2022/01/05 07:10:34;;;;;;;10.23;1.85;;;5.30;99.90;;;;;;5043862;28;20499;-79
2022/01/05 07:12:59;;;;;;;13.23;1.33;;;5.30;99.90;;;;;;5036541;28;20025;-79
2022/01/05 07:15:25;;;;;;;17.38;2.00;;;5.30;99.90;;;;;;5034197;28;20053;-79
2022/01/05 07:17:51;;;;;;;16.95;2.22;;;5.20;99.90;;;;;;5036501;28;20405;-78
2022/01/05 07:20:17;;;;;;;17.23;2.25;;;5.40;99.90;;;;;;5037236;28;20117;-79
2022/01/05 07:22:44;;;;;;;14.07;1.90;;;5.40;99.90;;;;;;5035820;28;20519;-79
2022/01/05 07:25:10;;;;;;;15.00;2.25;;;5.50;99.90;;;;;;5035439;28;20456;-79
2022/01/05 07:27:36;;;;;;;14.32;2.58;;;5.60;99.90;;;;;;5036106;28;20061;-80
2022/01/05 07:30:04;;;;;;;20.15;2.20;;;5.60;99.90;;;;;;5037450;28;20092;-80
2022/01/05 07:32:30;;;;;;;6.07;0.90;;;5.50;99.90;;;;;;5041165;28;20074;-80
2022/01/05 07:34:55;;;;;;;8.45;1.48;;;5.50;99.90;;;;;;5052916;28;20317;-80
2022/01/05 07:37:21;;;;;;;13.57;1.60;;;5.50;99.90;;;;;;5051490;28;20036;-80
2022/01/05 07:39:47;;;;;;;15.98;2.45;;;5.50;99.90;;;;;;5051222;28;20028;-80
2022/01/05 07:42:12;;;;;;;18.27;1.85;;;5.60;99.90;;;;;;5040887;28;20032;-80
2022/01/05 07:44:38;;;;;;;14.98;1.90;;;5.60;99.90;;;;;;5052374;28;20029;-82
2022/01/05 07:47:05;;;;;;;10.85;1.83;;;5.80;99.90;;;;;;5053786;28;20131;-79
2022/01/05 07:49:30;;;;;;;6.75;1.60;;;5.90;99.90;;;;;;5043104;28;20022;-79
2022/01/05 07:51:56;;;;;;;7.25;1.15;;;5.90;99.90;;;;;;5033367;28;20474;-79
2022/01/05 07:54:21;;;;;;;12.98;1.30;;;5.90;99.90;;;;;;5047052;28;20029;-79
2022/01/05 07:56:47;;;;;;;5.03;0.77;;;5.80;99.90;;;;;;5050714;28;20056;-80
2022/01/05 07:59:12;;;;;;;2.72;0.40;;;5.70;99.90;;;;;;5052895;28;20035;-82
2022/01/05 08:01:38;;;;;;;3.90;0.43;;;5.60;99.90;;;;;;5052189;28;20069;-81
2022/01/05 08:04:04;;;;;;;3.17;0.38;;;5.40;99.90;;;;;;5043962;28;20013;-81
2022/01/05 08:06:30;;;;;;;7.93;0.70;;;5.30;99.90;;;;;;5051747;28;20071;-81
2022/01/05 08:08:55;;;;;;;5.97;0.73;;;5.30;99.90;;;;;;5048634;28;20047;-81
2022/01/05 08:11:21;;;;;;;5.00;0.88;;;5.30;99.90;;;;;;5051135;28;20079;-81
2022/01/05 08:13:47;;;;;;;5.65;0.60;;;5.20;99.90;;;;;;5052919;28;20021;-81
2022/01/05 08:16:13;;;;;;;13.13;1.52;;;5.20;99.90;;;;;;5053210;28;20520;-81
2022/01/05 08:18:39;;;;;;;9.20;1.42;;;5.10;99.90;;;;;;5055160;28;20051;-80
2022/01/05 08:21:04;;;;;;;8.95;1.40;;;5.30;99.90;;;;;;5054622;28;20043;-81
2022/01/05 08:23:30;;;;;;;8.38;1.85;;;5.50;99.90;;;;;;5054588;28;20021;-81
2022/01/05 08:25:56;;;;;;;10.05;1.98;;;5.70;99.90;;;;;;5053553;28;20415;-81
2022/01/05 08:28:22;;;;;;;14.63;2.05;;;5.80;99.90;;;;;;5051816;28;20147;-81
2022/01/05 08:30:48;;;;;;;11.95;2.15;;;5.90;99.90;;;;;;5050441;28;20036;-81
2022/01/05 08:33:15;;;;;;;6.15;1.52;;;6.00;99.90;;;;;;5042920;28;20110;-80
2022/01/05 08:35:41;;;;;;;8.52;1.90;;;6.00;99.90;;;;;;5045302;28;20060;-81
2022/01/05 08:38:07;;;;;;;5.75;1.33;;;6.00;99.90;;;;;;5049947;28;20069;-81
2022/01/05 08:40:35;;;;;;;7.57;1.35;;;5.90;99.90;;;;;;5051140;28;20072;-81
2022/01/05 08:43:03;;;;;;;7.50;1.40;;;6.00;99.90;;;;;;5050760;28;20025;-81
2022/01/05 08:45:28;;;;;;;13.77;2.63;;;5.90;99.90;;;;;;5051150;28;20055;-81
2022/01/05 08:47:55;;;;;;;12.35;1.75;;;6.00;99.90;;;;;;5051199;28;20092;-81
2022/01/05 08:50:24;;;;;;;16.50;2.40;;;6.20;99.90;;;;;;5043311;28;20021;-81
2022/01/05 08:52:51;;;;;;;8.00;1.23;;;6.20;99.90;;;;;;5050843;28;20095;-80
2022/01/05 08:55:19;;;;;;;19.27;1.90;;;6.30;99.90;;;;;;5051150;28;20143;-80
2022/01/05 08:57:45;;;;;;;6.50;1.25;;;6.30;99.90;;;;;;5051007;28;20033;-81
2022/01/05 09:00:12;;;;;;;10.48;2.55;;;6.20;99.90;;;;;;5051131;28;20025;-81
2022/01/05 09:02:39;;;;;;;5.97;1.25;;;6.30;99.90;;;;;;5051154;28;20324;-81
2022/01/05 09:05:06;;;;;;;14.63;1.80;;;6.20;99.90;;;;;;5051105;28;20027;-80
2022/01/05 09:07:31;;;;;;;10.88;1.95;;;6.20;99.90;;;;;;5050662;28;20033;-80
2022/01/05 09:09:57;;;;;;;13.35;2.00;;;6.30;99.90;;;;;;5050154;28;20032;-80
2022/01/05 09:12:23;;;;;;;16.48;1.63;;;6.30;99.90;;;;;;5049301;28;20029;-80
2022/01/05 09:14:49;;;;;;;8.50;1.02;;;6.30;99.90;;;;;;5049823;28;20032;-81
2022/01/05 09:17:15;;;;;;;9.45;1.20;;;6.30;99.90;;;;;;5050770;28;20392;-80
2022/01/05 09:19:42;;;;;;;9.65;1.27;;;6.20;99.90;;;;;;5050874;28;20028;-81
2022/01/05 09:22:08;;;;;;;6.15;0.82;;;6.20;99.90;;;;;;5049513;28;20021;-80
2022/01/05 09:24:36;;;;;;;9.45;1.23;;;6.30;99.90;;;;;;5050863;28;20542;-80
2022/01/05 09:27:04;;;;;;;7.45;1.27;;;6.40;99.90;;;;;;5049513;28;20025;-80
2022/01/05 09:29:31;;;;;;;9.52;1.92;;;6.40;99.90;;;;;;5050670;28;20024;-80
2022/01/05 09:31:58;;;;;;;15.02;1.33;;;6.40;99.90;;;;;;5050866;28;20481;-80
2022/01/05 09:34:24;;;;;;;7.20;0.95;;;6.40;99.90;;;;;;5050423;28;20032;-81
2022/01/05 09:36:57;;;;;;;10.82;1.02;;;6.40;99.90;;;;;;5050752;28;20028;-80
2022/01/05 09:42:07;;;;;;;24.08;1.80;;;6.40;99.90;;;;;;5050882;28;20032;-80
2022/01/05 09:44:38;;;;;;;12.13;1.38;;;6.30;99.90;;;;;;5050439;28;20033;-81
2022/01/05 09:47:29;;;;;;;9.82;2.15;;;6.30;99.90;;;;;;5050677;28;20025;-80
2022/01/05 09:50:03;;;;;;;11.13;1.65;;;6.30;99.90;;;;;;5049276;28;20300;-80
2022/01/05 09:52:31;;;;;;;22.20;2.03;;;6.20;99.90;;;;;;5050342;28;20025;-80
2022/01/05 09:54:57;;;;;;;13.82;1.95;;;6.10;99.90;;;;;;5048534;28;20377;-80
2022/01/05 09:57:23;;;;;;;13.23;1.63;;;6.30;99.90;;;;;;5050274;28;20477;-80
2022/01/05 09:59:51;;;;;;;13.13;1.48;;;6.40;1.00;;;;;;5049027;28;20024;-80
2022/01/05 10:02:18;;;;;;;8.63;1.65;;;6.40;86.20;;;;;;5050381;28;20481;-80
2022/01/05 10:04:45;;;;;;;14.10;2.00;;;6.50;99.90;;;;;;5050278;28;20098;-80
2022/01/05 10:07:11;;;;;;;11.68;1.90;;;6.60;99.90;;;;;;5054308;28;20032;-80
2022/01/05 10:09:38;;;;;;;13.13;1.77;;;6.70;25.30;;;;;;5054048;28;20503;-80
2022/01/05 10:12:04;;;;;;;17.00;2.03;;;6.90;1.00;;;;;;5054311;28;20029;-80
2022/01/05 10:14:30;;;;;;;14.07;1.35;;;7.00;1.00;;;;;;5052765;28;20029;-80
2022/01/05 10:17:08;;;;;;;8.70;1.40;;;6.80;99.90;;;;;;5054217;28;20024;-80
2022/01/05 10:19:35;;;;;;;5.43;0.98;;;6.70;99.90;;;;;;5053918;28;20487;-80
2022/01/05 10:22:01;;;;;;;4.85;1.10;;;6.50;99.90;;;;;;5053526;28;20395;-80
2022/01/05 10:24:41;;;;;;;7.55;1.02;;;6.30;99.90;;;;;;5052628;28;20036;-80
2022/01/05 10:27:07;;;;;;;2.80;0.30;;;6.20;99.90;;;;;;5047798;28;20036;-80
2022/01/05 10:29:33;;;;;;;8.30;0.50;;;6.40;99.90;;;;;;5053717;28;20037;-80
2022/01/05 10:32:01;;;;;;;1.95;0.50;;;6.40;99.90;;;;;;5054401;28;20029;-80
2022/01/05 10:34:32;;;;;;;10.60;0.80;;;6.40;99.90;;;;;;5054107;28;20036;-80
2022/01/05 10:37:05;;;;;;;8.65;0.98;;;6.50;99.90;;;;;;5054006;28;20036;-80
2022/01/05 10:39:42;;;;;;;8.52;0.85;;;6.50;99.90;;;;;;5052416;28;20041;-80
2022/01/05 10:42:12;;;;;;;11.50;1.90;;;6.60;99.90;;;;;;5052565;28;20033;-80
2022/01/05 10:44:44;;;;;;;5.70;0.80;;;6.60;99.90;;;;;;5053474;28;20088;-80
2022/01/05 10:47:10;;;;;;;11.45;1.88;;;6.70;99.90;;;;;;5052575;28;20059;-80
2022/01/05 10:49:37;;;;;;;5.28;1.48;;;6.90;99.90;;;;;;5052156;28;20465;-80
2022/01/05 10:52:33;;;;;;;11.45;1.50;;;7.10;99.90;;;;;;5053781;28;20028;-80
2022/01/05 10:55:14;;;;;;;3.83;1.00;;;7.30;99.90;;;;;;5053561;28;20017;-80
2022/01/05 10:58:01;;;;;;;12.98;1.88;;;7.60;83.40;;;;;;5053207;28;20064;-80
2022/01/05 11:00:45;;;;;;;5.13;1.02;;;7.90;96.70;;;;;;5053321;28;20447;-80
2022/01/05 11:03:35;;;;;;;11.90;1.63;;;8.00;92.80;;;;;;5053490;28;20381;-80
2022/01/05 11:06:15;;;;;;;13.07;2.08;;;8.00;98.20;;;;;;5045882;28;20024;-80
2022/01/05 11:08:52;;;;;;;5.50;1.10;;;7.80;86.60;;;;;;5052568;28;20048;-80
2022/01/05 11:11:42;;;;;;;7.95;1.65;;;7.50;89.70;;;;;;5052028;28;20029;-80
2022/01/05 11:14:14;;;;;;;8.52;1.27;;;7.40;68.00;;;;;;5044903;28;20032;-80
2022/01/05 11:16:42;;;;;;;10.13;1.20;;;7.30;84.40;;;;;;5051594;28;20068;-80
2022/01/05 11:19:12;;;;;;;12.68;1.70;;;7.20;56.40;;;;;;5052275;28;20024;-80
2022/01/05 11:21:38;;;;;;;10.68;1.73;;;7.10;99.90;;;;;;5050527;28;20124;-80
2022/01/05 11:24:05;;;;;;;9.85;1.30;;;7.20;99.90;;;;;;5044194;28;20428;-80
2022/01/05 11:26:35;;;;;;;7.18;0.65;;;7.30;99.90;;;;;;5050551;28;20087;-80
2022/01/05 11:29:04;;;;;;;4.35;0.70;;;7.20;25.10;;;;;;5051970;28;20025;-80
2022/01/05 11:31:33;;;;;;;1.65;0.55;;;7.20;22.80;;;;;;5051836;28;20466;-80
2022/01/05 11:33:58;;;;;;;4.47;0.43;;;7.20;14.50;;;;;;5051598;28;20024;-80
2022/01/05 11:36:25;;;;;;;7.22;0.77;;;7.20;13.10;;;;;;5051810;28;20027;-80
2022/01/05 11:38:51;;;;;;;3.70;0.60;;;7.30;29.80;;;;;;5051476;28;20040;-80
2022/01/05 11:41:18;;;;;;;4.13;0.68;;;7.10;69.30;;;;;;5051780;28;20037;-80
2022/01/05 11:43:44;;;;;;;9.00;1.40;;;7.10;79.10;;;;;;5050249;28;20040;-80
2022/01/05 11:46:17;;;;;;;6.78;0.77;;;7.00;93.10;;;;;;5043475;28;20024;-80
2022/01/05 11:49:06;;;;;;;10.68;1.88;;;6.90;99.90;;;;;;5051921;28;20041;-80
2022/01/05 11:51:48;;;;;;;11.25;2.22;;;6.90;99.90;;;;;;5051452;28;20083;-80
2022/01/05 11:54:30;;;;;;;5.57;1.35;;;7.10;97.70;;;;;;5043867;28;20083;-80
2022/01/05 11:57:05;;;;;;;9.15;1.30;;;7.60;44.60;;;;;;5049795;28;20036;-80
2022/01/05 11:59:39;;;;;;;8.73;1.10;;;8.20;20.70;;;;;;5051349;28;20044;-80
2022/01/05 12:02:08;;;;;;;4.88;1.00;;;8.30;22.80;;;;;;5051171;28;20025;-80
2022/01/05 12:04:53;;;;;;;7.15;1.83;;;7.90;41.00;;;;;;5049944;28;20025;-80
2022/01/05 12:07:40;;;;;;;7.45;0.90;;;7.40;99.90;;;;;;5008080;28;1024319;-80
2022/01/05 12:10:12;;;;;;;8.13;1.38;;;7.00;99.90;;;;;;5052058;28;20029;-80
2022/01/05 12:12:55;;;;;;;4.95;1.00;;;7.00;99.90;;;;;;5052417;28;20151;-80
2022/01/05 12:15:38;;;;;;;3.83;1.00;;;6.90;99.90;;;;;;5044721;28;20025;-81
2022/01/05 12:18:05;;;;;;;6.82;0.82;;;6.80;99.90;;;;;;5051919;28;20484;-80
2022/01/05 12:20:39;;;;;;;5.07;1.02;;;6.60;99.90;;;;;;5050683;28;20431;-80
2022/01/05 12:23:25;;;;;;;10.30;1.25;;;6.50;99.90;;;;;;5053124;28;20029;-80
2022/01/05 12:26:03;;;;;;;6.32;0.65;;;6.60;99.90;;;;;;5067061;28;20040;-80
2022/01/05 12:28:31;;;;;;;7.68;0.80;;;6.70;99.90;;;;;;5047864;28;20024;-80
2022/01/05 12:30:57;;;;;;;5.97;0.98;;;6.70;99.90;;;;;;5053134;28;20029;-80
2022/01/05 12:33:23;;;;;;;9.13;1.08;;;7.20;99.90;;;;;;5053491;28;20028;-80
2022/01/05 12:36:00;;;;;;;7.28;1.50;;;7.20;99.90;;;;;;5054666;28;20014;-80
2022/01/05 12:38:41;;;;;;;10.52;2.13;;;7.10;99.90;;;;;;5055073;28;20044;-80
2022/01/05 12:41:35;;;;;;;15.45;2.58;;;7.00;99.90;;;;;;5053740;28;20021;-80
2022/01/05 12:44:11;;;;;;;15.30;1.92;;;7.00;99.90;;;;;;5054707;28;20021;-79
2022/01/05 12:46:42;;;;;;;10.13;1.27;;;7.00;99.90;;;;;;5053461;28;20039;-80
2022/01/05 12:49:13;;;;;;;5.22;1.00;;;6.80;99.90;;;;;;5055185;28;20017;-80
2022/01/05 12:51:53;;;;;;;9.07;1.88;;;6.70;99.90;;;;;;5055275;28;20461;-80
2022/01/05 12:54:31;;;;;;;6.95;1.25;;;6.70;99.90;;;;;;5054935;28;20040;-80
2022/01/05 12:57:02;;;;;;;3.03;0.77;;;6.80;99.90;;;;;;5054683;28;20028;-80
2022/01/05 12:59:40;;;;;;;11.60;3.08;;;6.90;99.90;;;;;;5054918;28;20435;-80
2022/01/05 13:02:08;;;;;;;11.05;1.55;;;7.00;99.90;;;;;;5053570;28;20025;-80
2022/01/05 13:04:35;;;;;;;24.83;2.47;;;7.20;99.90;;;;;;5055166;28;20033;-80
2022/01/05 13:07:04;;;;;;;10.80;1.63;;;7.30;99.90;;;;;;5054986;28;20017;-80
2022/01/05 13:09:31;;;;;;;12.98;1.67;;;7.50;99.90;;;;;;5053265;28;20111;-80